Time;durP1;ratioP1;P1;durP2;ratioP2;P2;SDS_P1;SDS_P2;PMS_P1;PMS_P2;Temp;Humidity;BMP_temperature;BMP_pressure;BME280_temperature;BME280_humidity;BME280_pressure;Samples;Min_cycle;Max_cycle;Signal;HPM_P1;HPM_P2
2023/06/01 00:01:32;;;;;;;;;;;22.20;53.50;;;;;;5040392;28;19931;-82
2023/06/01 00:03:58;;;;;;;;;;;22.20;53.50;;;;;;5057449;28;19944;-82
2023/06/01 00:06:28;;;;;;;;;;;22.20;53.50;;;;;;5040170;28;19916;-82
2023/06/01 00:08:57;;;;;;;;;;;22.20;53.50;;;;;;5040171;28;19908;-82
2023/06/01 00:11:23;;;;;;;;;;;22.20;53.60;;;;;;5040228;28;20374;-82
2023/06/01 00:13:49;;;;;;;;;;;22.20;53.60;;;;;;5038934;28;20004;-82
2023/06/01 00:16:15;;;;;;;;;;;22.20;53.60;;;;;;5039550;28;20182;-82
2023/06/01 00:18:40;;;;;;;;;;;22.10;53.60;;;;;;5055578;28;19909;-82
2023/06/01 00:21:06;;;;;;;;;;;22.10;53.60;;;;;;5039353;28;19909;-82
2023/06/01 00:23:32;;;;;;;;;;;22.10;53.60;;;;;;5037584;28;19995;-82
2023/06/01 00:25:58;;;;;;;;;;;22.10;53.60;;;;;;5038363;28;19915;-82
2023/06/01 00:28:23;;;;;;;;;;;22.10;53.60;;;;;;5055531;28;19913;-82
2023/06/01 00:30:49;;;;;;;;;;;22.10;53.70;;;;;;5038926;28;19917;-81
2023/06/01 00:33:15;;;;;;;;;;;22.10;53.70;;;;;;5038641;28;20179;-81
2023/06/01 00:35:40;;;;;;;;;;;22.00;53.70;;;;;;5039365;28;19909;-81
2023/06/01 00:38:06;;;;;;;;;;;22.00;53.70;;;;;;5038936;28;20147;-81
2023/06/01 00:40:33;;;;;;;;;;;22.00;53.70;;;;;;5038950;28;19924;-82
2023/06/01 00:42:59;;;;;;;;;;;22.00;53.70;;;;;;5038963;28;20237;-82
2023/06/01 00:45:24;;;;;;;;;;;22.00;53.70;;;;;;5038838;28;19974;-82
2023/06/01 00:47:50;;;;;;;;;;;22.00;53.70;;;;;;5039175;28;19956;-81
2023/06/01 00:50:16;;;;;;;;;;;22.00;53.70;;;;;;5039226;28;20194;-82
2023/06/01 00:52:42;;;;;;;;;;;21.90;53.70;;;;;;5040197;28;19970;-82
2023/06/01 00:55:08;;;;;;;;;;;21.90;53.70;;;;;;5040426;28;19909;-82
2023/06/01 00:57:36;;;;;;;;;;;21.90;53.70;;;;;;5058285;28;20300;-81
2023/06/01 01:00:08;;;;;;;;;;;21.90;53.70;;;;;;5040482;28;19920;-82
2023/06/01 01:02:38;;;;;;;;;;;21.90;53.80;;;;;;5040093;28;19944;-81
2023/06/01 01:05:09;;;;;;;;;;;21.90;53.80;;;;;;5040025;28;20003;-81
2023/06/01 01:07:44;;;;;;;;;;;21.80;53.70;;;;;;5040069;28;20429;-81
2023/06/01 01:10:24;;;;;;;;;;;21.80;53.80;;;;;;5057977;28;20305;-81
2023/06/01 01:12:57;;;;;;;;;;;21.80;53.80;;;;;;5056161;28;20204;-81
2023/06/01 01:15:29;;;;;;;;;;;21.80;53.80;;;;;;5040087;28;19916;-82
2023/06/01 01:18:02;;;;;;;;;;;21.80;53.80;;;;;;5040289;28;20205;-81
2023/06/01 01:20:28;;;;;;;;;;;21.80;53.90;;;;;;5039754;28;19978;-81
2023/06/01 01:22:57;;;;;;;;;;;21.70;53.80;;;;;;5039892;28;19935;-82
2023/06/01 01:25:26;;;;;;;;;;;21.70;53.80;;;;;;5057226;28;19916;-81
2023/06/01 01:27:55;;;;;;;;;;;21.70;53.80;;;;;;5057135;28;19920;-81
2023/06/01 01:30:21;;;;;;;;;;;21.70;53.80;;;;;;5056047;28;19923;-81
2023/06/01 01:32:50;;;;;;;;;;;21.70;53.80;;;;;;5053041;28;19956;-81
2023/06/01 01:35:16;;;;;;;;;;;21.60;53.80;;;;;;5035399;28;19909;-81
2023/06/01 01:37:52;;;;;;;;;;;21.70;53.80;;;;;;5036615;28;19919;-81
2023/06/01 01:40:17;;;;;;;;;;;21.60;53.80;;;;;;5036548;28;20119;-81
2023/06/01 01:42:43;;;;;;;;;;;21.60;53.80;;;;;;5037007;28;19982;-81
2023/06/01 01:45:09;;;;;;;;;;;21.60;53.80;;;;;;5036381;28;19917;-81
2023/06/01 01:47:38;;;;;;;;;;;21.60;53.80;;;;;;5034670;28;19909;-81
2023/06/01 01:50:06;;;;;;;;;;;21.60;53.80;;;;;;5052591;28;19913;-81
2023/06/01 01:52:37;;;;;;;;;;;21.60;53.90;;;;;;5036278;28;20258;-81
2023/06/01 01:55:05;;;;;;;;;;;21.60;53.90;;;;;;5035921;28;19918;-81
2023/06/01 01:57:33;;;;;;;;;;;21.60;53.90;;;;;;5035350;28;19970;-81
2023/06/01 02:00:00;;;;;;;;;;;21.50;53.90;;;;;;5035673;28;19913;-81
2023/06/01 02:02:25;;;;;;;;;;;21.50;53.90;;;;;;5037152;28;19928;-81
2023/06/01 02:04:51;;;;;;;;;;;21.50;53.90;;;;;;5038962;28;19974;-81
2023/06/01 02:07:17;;;;;;;;;;;21.50;53.90;;;;;;5039127;28;20286;-81
2023/06/01 02:09:42;;;;;;;;;;;21.50;53.90;;;;;;5055703;28;19920;-81
2023/06/01 02:12:08;;;;;;;;;;;21.50;53.90;;;;;;5038039;28;19912;-82
2023/06/01 02:14:34;;;;;;;;;;;21.50;53.90;;;;;;5055701;28;19909;-82
2023/06/01 02:17:00;;;;;;;;;;;21.40;54.00;;;;;;5037973;28;20333;-82
2023/06/01 02:19:29;;;;;;;;;;;21.40;54.00;;;;;;5036971;28;20096;-81
2023/06/01 02:21:54;;;;;;;;;;;21.40;54.00;;;;;;5037379;28;20339;-82
2023/06/01 02:24:20;;;;;;;;;;;21.40;54.00;;;;;;5036610;28;19908;-82
2023/06/01 02:26:48;;;;;;;;;;;21.40;54.00;;;;;;5054489;28;19975;-81
2023/06/01 02:29:14;;;;;;;;;;;21.30;53.90;;;;;;5055395;28;19916;-81
2023/06/01 02:31:40;;;;;;;;;;;21.30;54.00;;;;;;5037766;28;19909;-82
2023/06/01 02:34:05;;;;;;;;;;;21.30;54.00;;;;;;5054527;28;19924;-82
2023/06/01 02:36:34;;;;;;;;;;;21.30;54.00;;;;;;5037441;28;20241;-82
2023/06/01 02:39:00;;;;;;;;;;;21.30;54.00;;;;;;5037084;28;19909;-82
2023/06/01 02:41:25;;;;;;;;;;;21.30;54.00;;;;;;5055227;28;19909;-82
2023/06/01 02:43:51;;;;;;;;;;;21.30;54.40;;;;;;5037439;28;19909;-82
2023/06/01 02:46:18;;;;;;;;;;;21.30;54.10;;;;;;5037266;28;20183;-82
2023/06/01 02:48:44;;;;;;;;;;;21.30;54.10;;;;;;5037608;28;19915;-81
2023/06/01 02:51:09;;;;;;;;;;;21.20;54.00;;;;;;5054726;28;19909;-82
2023/06/01 02:53:35;;;;;;;;;;;21.20;54.00;;;;;;5037502;28;20004;-82
2023/06/01 02:56:01;;;;;;;;;;;21.20;54.00;;;;;;5037927;28;19913;-81
2023/06/01 02:58:29;;;;;;;;;;;21.20;54.10;;;;;;5038240;28;20290;-81
2023/06/01 03:00:55;;;;;;;;;;;21.10;54.10;;;;;;5037695;28;19921;-81
2023/06/01 03:03:21;;;;;;;;;;;21.10;54.10;;;;;;5037841;28;20000;-81
2023/06/01 03:05:47;;;;;;;;;;;21.10;54.10;;;;;;5039326;28;20015;-81
2023/06/01 03:08:13;;;;;;;;;;;21.10;54.10;;;;;;5040066;28;19924;-81
2023/06/01 03:10:39;;;;;;;;;;;21.10;54.10;;;;;;5042511;28;19931;-81
2023/06/01 03:13:04;;;;;;;;;;;21.10;54.10;;;;;;5044114;28;19951;-81
2023/06/01 03:15:37;;;;;;;;;;;21.00;54.10;;;;;;5044020;28;19908;-81
2023/06/01 03:18:03;;;;;;;;;;;21.00;54.10;;;;;;5043580;28;19916;-81
2023/06/01 03:20:29;;;;;;;;;;;21.00;54.10;;;;;;5060443;28;19924;-81
2023/06/01 03:22:55;;;;;;;;;;;21.00;54.10;;;;;;5043574;28;19913;-81
2023/06/01 03:25:40;;;;;;;;;;;21.00;54.10;;;;;;5060749;28;19909;-81
2023/06/01 03:28:05;;;;;;;;;;;21.00;54.10;;;;;;5061014;28;19917;-81
2023/06/01 03:30:31;;;;;;;;;;;20.90;54.10;;;;;;5043988;28;19931;-81
2023/06/01 03:33:06;;;;;;;;;;;21.00;54.20;;;;;;5043978;28;19959;-81
2023/06/01 03:35:32;;;;;;;;;;;20.90;54.10;;;;;;5044303;28;20255;-81
2023/06/01 03:37:57;;;;;;;;;;;20.90;54.10;;;;;;5044131;28;19909;-81
2023/06/01 03:40:23;;;;;;;;;;;20.90;54.10;;;;;;5061271;28;20578;-81
2023/06/01 03:42:49;;;;;;;;;;;20.90;54.10;;;;;;5043922;28;20239;-81
2023/06/01 03:45:16;;;;;;;;;;;20.80;54.10;;;;;;5060911;28;19923;-81
2023/06/01 03:47:41;;;;;;;;;;;20.80;54.10;;;;;;5043833;28;19916;-81
2023/06/01 03:50:08;;;;;;;;;;;20.80;54.10;;;;;;5043376;28;19962;-81
2023/06/01 03:52:34;;;;;;;;;;;20.80;54.10;;;;;;5042169;28;19909;-81
2023/06/01 03:55:10;;;;;;;;;;;20.80;54.10;;;;;;5059817;28;19920;-81
2023/06/01 03:57:36;;;;;;;;;;;20.80;54.20;;;;;;5043370;28;19909;-81
2023/06/01 04:00:17;;;;;;;;;;;20.70;54.10;;;;;;5060503;28;19913;-81
2023/06/01 04:02:46;;;;;;;;;;;20.70;54.10;;;;;;5060332;28;19909;-81
2023/06/01 04:05:19;;;;;;;;;;;20.70;54.10;;;;;;5042151;28;19909;-81
2023/06/01 04:07:45;;;;;;;;;;;20.70;54.10;;;;;;5060247;28;19919;-81
2023/06/01 04:10:13;;;;;;;;;;;20.70;54.10;;;;;;5042774;28;19909;-81
2023/06/01 04:12:40;;;;;;;;;;;20.70;54.10;;;;;;5041824;28;20281;-81
2023/06/01 04:15:06;;;;;;;;;;;20.70;54.10;;;;;;5042484;28;20289;-81
2023/06/01 04:17:32;;;;;;;;;;;20.70;54.10;;;;;;5059809;28;20003;-81
2023/06/01 04:19:57;;;;;;;;;;;20.70;54.00;;;;;;5042962;28;20050;-81
2023/06/01 04:22:23;;;;;;;;;;;20.70;54.10;;;;;;5041762;28;19968;-81
2023/06/01 04:24:48;;;;;;;;;;;20.70;54.10;;;;;;5042543;28;20200;-81
2023/06/01 04:27:15;;;;;;;;;;;20.70;54.10;;;;;;5042195;28;20190;-81
2023/06/01 04:29:43;;;;;;;;;;;20.70;54.10;;;;;;5041910;28;19996;-81
2023/06/01 04:32:09;;;;;;;;;;;20.60;54.00;;;;;;5042006;28;19975;-81
2023/06/01 04:34:35;;;;;;;;;;;20.60;54.00;;;;;;5041295;28;19908;-81
2023/06/01 04:37:04;;;;;;;;;;;20.60;54.00;;;;;;5041400;28;19909;-81
2023/06/01 04:39:29;;;;;;;;;;;20.60;54.00;;;;;;5042530;28;19913;-81
2023/06/01 04:41:57;;;;;;;;;;;20.60;54.00;;;;;;5041293;28;19917;-81
2023/06/01 04:44:22;;;;;;;;;;;20.60;54.00;;;;;;5040838;28;19988;-81
2023/06/01 04:46:51;;;;;;;;;;;20.60;54.00;;;;;;5040341;28;19908;-81
2023/06/01 04:49:18;;;;;;;;;;;20.60;54.00;;;;;;5040178;28;19955;-81
2023/06/01 04:51:44;;;;;;;;;;;20.60;54.00;;;;;;5040129;28;19920;-81
2023/06/01 04:54:10;;;;;;;;;;;20.60;54.00;;;;;;5039858;28;19916;-82
2023/06/01 04:56:44;;;;;;;;;;;20.60;54.00;;;;;;5058322;28;19908;-81
2023/06/01 04:59:10;;;;;;;;;;;20.60;54.00;;;;;;5040217;28;20286;-81
2023/06/01 05:01:37;;;;;;;;;;;20.60;54.00;;;;;;5042463;28;19909;-81
2023/06/01 05:04:03;;;;;;;;;;;20.60;54.00;;;;;;5058820;28;19909;-81
2023/06/01 05:06:28;;;;;;;;;;;20.60;54.00;;;;;;5040974;28;19916;-81
2023/06/01 05:08:54;;;;;;;;;;;20.50;54.00;;;;;;5040639;28;19924;-82
2023/06/01 05:11:21;;;;;;;;;;;20.50;54.00;;;;;;5040475;28;19909;-82
2023/06/01 05:13:46;;;;;;;;;;;20.50;54.00;;;;;;5039774;28;20008;-81
2023/06/01 05:16:12;;;;;;;;;;;20.50;54.00;;;;;;5039149;28;20007;-82
2023/06/01 05:18:38;;;;;;;;;;;20.50;54.00;;;;;;5039082;28;19908;-82
2023/06/01 05:21:03;;;;;;;;;;;20.50;54.00;;;;;;5057454;28;19913;-82
2023/06/01 05:23:29;;;;;;;;;;;20.50;54.10;;;;;;5040885;28;20026;-82
2023/06/01 05:26:01;;;;;;;;;;;20.50;54.20;;;;;;5039861;28;20202;-82
2023/06/01 05:28:28;;;;;;;;;;;20.50;54.20;;;;;;5055164;28;19923;-81
2023/06/01 05:30:54;;;;;;;;;;;20.50;54.20;;;;;;5036114;28;20217;-81
2023/06/01 05:33:19;;;;;;;;;;;20.50;54.20;;;;;;5032694;28;19917;-81
2023/06/01 05:35:45;;;;;;;;;;;20.50;54.20;;;;;;5034139;28;19909;-81
2023/06/01 05:38:11;;;;;;;;;;;20.50;54.20;;;;;;5034550;28;19909;-82
2023/06/01 05:40:36;;;;;;;;;;;20.50;54.20;;;;;;5034368;28;19920;-81
2023/06/01 05:43:02;;;;;;;;;;;20.50;54.20;;;;;;5051811;28;19909;-81
2023/06/01 05:45:36;;;;;;;;;;;20.50;54.20;;;;;;5036921;28;19909;-81
2023/06/01 05:48:02;;;;;;;;;;;20.50;54.20;;;;;;5035864;28;20015;-79
2023/06/01 05:50:28;;;;;;;;;;;20.50;54.20;;;;;;5035467;28;20003;-79
2023/06/01 05:52:53;;;;;;;;;;;20.50;54.20;;;;;;5052588;28;20475;-79
2023/06/01 05:55:19;;;;;;;;;;;20.50;54.20;;;;;;5036687;28;20298;-79
2023/06/01 05:57:45;;;;;;;;;;;20.50;54.20;;;;;;5053069;28;19923;-79
2023/06/01 06:00:15;;;;;;;;;;;20.50;54.20;;;;;;5053812;28;19912;-79
2023/06/01 06:02:42;;;;;;;;;;;20.50;54.20;;;;;;5054267;28;19968;-79
2023/06/01 06:05:09;;;;;;;;;;;20.50;54.20;;;;;;5034360;28;20209;-79
2023/06/01 06:07:34;;;;;;;;;;;20.50;54.20;;;;;;5035529;28;20288;-79
2023/06/01 06:10:00;;;;;;;;;;;20.50;54.20;;;;;;5035260;28;20007;-79
2023/06/01 06:12:26;;;;;;;;;;;20.50;54.20;;;;;;5035517;28;19909;-79
2023/06/01 06:14:51;;;;;;;;;;;20.50;54.20;;;;;;5036073;28;19917;-79
2023/06/01 06:17:17;;;;;;;;;;;20.50;54.50;;;;;;5053624;28;19974;-79
2023/06/01 06:19:44;;;;;;;;;;;20.50;54.50;;;;;;5035001;28;20015;-79
2023/06/01 06:22:10;;;;;;;;;;;20.50;54.10;;;;;;5052554;28;20007;-80
2023/06/01 06:24:36;;;;;;;;;;;20.50;54.10;;;;;;5053927;28;19908;-79
2023/06/01 06:27:03;;;;;;;;;;;20.50;54.10;;;;;;5035228;28;19963;-79
2023/06/01 06:29:29;;;;;;;;;;;20.50;54.00;;;;;;5035707;28;19999;-79
2023/06/01 06:31:54;;;;;;;;;;;20.50;54.00;;;;;;5034844;28;20007;-80
2023/06/01 06:34:20;;;;;;;;;;;20.50;54.00;;;;;;5035895;28;19996;-80
2023/06/01 06:36:46;;;;;;;;;;;20.60;54.00;;;;;;5036847;28;20007;-80
2023/06/01 06:39:12;;;;;;;;;;;20.60;53.90;;;;;;5036062;28;19915;-80
2023/06/01 06:41:40;;;;;;;;;;;20.60;53.90;;;;;;5053841;28;19962;-80
2023/06/01 06:44:05;;;;;;;;;;;20.60;53.90;;;;;;5051996;28;19970;-80
2023/06/01 06:46:31;;;;;;;;;;;20.60;53.90;;;;;;5035828;28;19978;-80
2023/06/01 06:48:57;;;;;;;;;;;20.60;53.80;;;;;;5033938;28;19909;-80
2023/06/01 06:51:22;;;;;;;;;;;20.60;53.70;;;;;;5035624;28;19909;-80
2023/06/01 06:53:48;;;;;;;;;;;20.70;53.80;;;;;;5034085;28;19955;-80
2023/06/01 06:56:14;;;;;;;;;;;20.60;53.70;;;;;;5036225;28;19909;-80
2023/06/01 06:58:40;;;;;;;;;;;20.70;53.70;;;;;;5035794;28;20282;-80
2023/06/01 07:01:05;;;;;;;;;;;20.80;53.60;;;;;;5035820;28;20029;-80
2023/06/01 07:03:31;;;;;;;;;;;20.80;53.60;;;;;;5054562;28;19941;-80
2023/06/01 07:05:57;;;;;;;;;;;20.80;53.60;;;;;;5054286;28;19995;-80
2023/06/01 07:08:23;;;;;;;;;;;20.80;53.50;;;;;;5037885;28;20432;-80
2023/06/01 07:10:49;;;;;;;;;;;20.80;53.50;;;;;;5037327;28;20113;-81
2023/06/01 07:13:14;;;;;;;;;;;20.90;53.50;;;;;;5037044;28;20241;-80
2023/06/01 07:15:40;;;;;;;;;;;20.90;53.50;;;;;;5034348;28;20310;-80
2023/06/01 07:18:06;;;;;;;;;;;20.90;53.40;;;;;;5036729;28;20293;-80
2023/06/01 07:20:32;;;;;;;;;;;20.90;53.30;;;;;;5036805;28;19923;-81
2023/06/01 07:22:57;;;;;;;;;;;21.00;53.30;;;;;;5052938;28;19909;-81
2023/06/01 07:25:23;;;;;;;;;;;21.10;53.10;;;;;;5052172;28;19916;-83
2023/06/01 07:27:49;;;;;;;;;;;21.20;52.90;;;;;;5035309;28;19909;-83
2023/06/01 07:30:15;;;;;;;;;;;21.50;52.70;;;;;;5034697;28;19924;-82
2023/06/01 07:32:41;;;;;;;;;;;21.50;52.40;;;;;;5051791;28;19917;-83
2023/06/01 07:35:07;;;;;;;;;;;22.00;52.10;;;;;;5051398;28;19940;-83
2023/06/01 07:37:33;;;;;;;;;;;22.40;51.40;;;;;;5051803;28;19944;-83
2023/06/01 07:40:00;;;;;;;;;;;22.90;51.00;;;;;;5036110;28;19913;-83
2023/06/01 07:42:25;;;;;;;;;;;23.30;50.50;;;;;;5036280;28;19923;-83
2023/06/01 07:44:51;;;;;;;;;;;23.60;49.80;;;;;;5036675;28;19909;-83
2023/06/01 07:47:16;;;;;;;;;;;23.70;49.50;;;;;;5051939;28;19992;-83
2023/06/01 07:49:42;;;;;;;;;;;23.60;49.50;;;;;;5051254;28;20003;-83
2023/06/01 07:52:08;;;;;;;;;;;23.50;49.60;;;;;;5034790;28;19909;-83
2023/06/01 07:54:37;;;;;;;;;;;23.30;49.70;;;;;;5035285;28;19909;-83
2023/06/01 07:57:05;;;;;;;;;;;23.30;49.80;;;;;;5037841;28;19909;-83
2023/06/01 07:59:31;;;;;;;;;;;23.20;49.80;;;;;;5038147;28;19919;-83
2023/06/01 08:01:58;;;;;;;;;;;23.40;49.70;;;;;;5037808;28;19909;-82
2023/06/01 08:04:24;;;;;;;;;;;23.50;49.60;;;;;;5037246;28;19919;-82
2023/06/01 08:06:52;;;;;;;;;;;23.60;49.50;;;;;;5055680;28;20015;-83
2023/06/01 08:09:19;;;;;;;;;;;23.90;49.40;;;;;;5038301;28;19915;-83
2023/06/01 08:11:45;;;;;;;;;;;23.90;49.10;;;;;;5036668;28;20011;-84
2023/06/01 08:14:11;;;;;;;;;;;24.30;49.00;;;;;;5037112;28;20015;-82
2023/06/01 08:16:36;;;;;;;;;;;25.20;48.40;;;;;;5037083;28;19909;-83
2023/06/01 08:19:03;;;;;;;;;;;25.80;47.70;;;;;;5037058;28;19920;-83
2023/06/01 08:21:28;;;;;;;;;;;25.60;47.10;;;;;;5037372;28;19920;-83
2023/06/01 08:23:57;;;;;;;;;;;26.20;47.10;;;;;;5034714;28;19909;-84
2023/06/01 08:26:23;;;;;;;;;;;26.40;46.80;;;;;;5038214;28;19908;-83
2023/06/01 08:28:52;;;;;;;;;;;26.90;46.40;;;;;;5056102;28;19912;-82
2023/06/01 08:31:22;;;;;;;;;;;27.40;46.10;;;;;;5039898;28;19939;-80
2023/06/01 08:33:49;;;;;;;;;;;27.80;45.70;;;;;;5040271;28;19916;-81
2023/06/01 08:36:14;;;;;;;;;;;27.70;45.20;;;;;;5041598;28;19996;-81
2023/06/01 08:38:46;;;;;;;;;;;27.20;45.30;;;;;;5041278;28;19948;-80
2023/06/01 08:41:25;;;;;;;;;;;27.50;45.60;;;;;;5039631;28;19984;-80
2023/06/01 08:44:13;;;;;;;;;;;27.90;45.40;;;;;;5038241;28;19913;-81
2023/06/01 08:46:40;;;;;;;;;;;28.30;45.10;;;;;;5053405;28;19909;-80
2023/06/01 08:49:07;;;;;;;;;;;28.60;44.70;;;;;;5036033;28;19928;-80
2023/06/01 08:51:36;;;;;;;;;;;28.90;44.50;;;;;;5035099;28;19917;-80
2023/06/01 08:54:03;;;;;;;;;;;29.10;44.30;;;;;;5033964;28;19965;-80
2023/06/01 08:56:29;;;;;;;;;;;29.40;44.20;;;;;;5035009;28;19909;-80
2023/06/01 08:58:56;;;;;;;;;;;29.60;44.00;;;;;;5035177;28;20203;-79
2023/06/01 09:01:23;;;;;;;;;;;29.70;43.90;;;;;;5036811;28;20011;-79
2023/06/01 09:03:51;;;;;;;;;;;29.80;43.80;;;;;;5036944;28;19947;-79
2023/06/01 09:06:18;;;;;;;;;;;29.90;43.70;;;;;;5057111;28;19916;-79
2023/06/01 09:08:44;;;;;;;;;;;29.90;43.60;;;;;;5032351;28;19944;-79
2023/06/01 09:11:10;;;;;;;;;;;30.10;43.50;;;;;;5036646;28;19947;-79
2023/06/01 09:13:37;;;;;;;;;;;30.10;43.40;;;;;;5036014;28;20337;-79
2023/06/01 09:16:03;;;;;;;;;;;30.10;43.50;;;;;;5051768;28;20007;-79
2023/06/01 09:18:29;;;;;;;;;;;30.00;43.40;;;;;;5054794;28;19919;-79
2023/06/01 09:21:09;;;;;;;;;;;30.00;43.50;;;;;;5037597;28;19917;-79
2023/06/01 09:23:35;;;;;;;;;;;29.80;43.50;;;;;;5038425;28;19920;-80
2023/06/01 09:26:23;;;;;;;;;;;29.50;43.50;;;;;;5036892;28;19909;-79
2023/06/01 09:28:55;;;;;;;;;;;29.20;43.70;;;;;;5036960;28;19908;-79
2023/06/01 09:31:41;;;;;;;;;;;28.80;43.90;;;;;;5037573;28;20217;-79
2023/06/01 09:34:07;;;;;;;;;;;28.40;44.10;;;;;;5034821;28;19948;-80
2023/06/01 09:36:33;;;;;;;;;;;28.10;44.40;;;;;;5013718;28;19943;-79
2023/06/01 09:39:03;;;;;;;;;;;27.80;44.60;;;;;;4996817;28;20276;-79
2023/06/01 09:41:49;;;;;;;;;;;27.60;44.80;;;;;;4995221;28;19921;-79
2023/06/01 09:44:22;;;;;;;;;;;27.40;45.00;;;;;;5010192;28;19921;-79
2023/06/01 09:46:48;;;;;;;;;;;27.20;45.70;;;;;;4994094;28;19917;-79
2023/06/01 09:49:25;;;;;;;;;;;27.10;46.20;;;;;;4994247;28;20431;-79
2023/06/01 09:51:52;;;;;;;;;;;27.00;46.10;;;;;;5011375;28;19921;-79
2023/06/01 09:54:27;;;;;;;;;;;26.90;46.00;;;;;;5014048;28;19910;-79
2023/06/01 09:56:57;;;;;;;;;;;26.90;46.30;;;;;;4995078;28;19976;-79
2023/06/01 09:59:23;;;;;;;;;;;26.80;46.20;;;;;;4996003;28;19909;-79
2023/06/01 10:01:50;;;;;;;;;;;26.80;46.30;;;;;;4994416;28;19920;-79
2023/06/01 10:04:19;;;;;;;;;;;26.70;46.30;;;;;;4996463;28;19979;-79
2023/06/01 10:06:51;;;;;;;;;;;26.70;46.30;;;;;;4996034;28;19910;-79
2023/06/01 10:09:19;;;;;;;;;;;26.60;46.30;;;;;;4994791;28;20000;-80
2023/06/01 10:11:49;;;;;;;;;;;26.60;46.50;;;;;;4994760;28;20444;-79
2023/06/01 10:14:17;;;;;;;;;;;26.60;46.40;;;;;;5012875;28;20019;-80
2023/06/01 10:16:51;;;;;;;;;;;26.50;46.40;;;;;;5012356;28;20298;-80
2023/06/01 10:19:17;;;;;;;;;;;26.50;46.50;;;;;;5010217;28;19925;-80
2023/06/01 10:21:44;;;;;;;;;;;26.40;46.50;;;;;;4994829;28;20374;-80
2023/06/01 10:24:10;;;;;;;;;;;26.40;46.70;;;;;;4995920;28;19977;-81
2023/06/01 10:26:59;;;;;;;;;;;26.30;46.70;;;;;;4995686;28;20016;-80
2023/06/01 10:29:25;;;;;;;;;;;26.30;46.80;;;;;;5003396;28;19945;-80
2023/06/01 10:31:51;;;;;;;;;;;26.20;46.80;;;;;;4994598;28;19917;-80
2023/06/01 10:34:35;;;;;;;;;;;26.20;46.90;;;;;;5013753;28;20554;-80
2023/06/01 10:37:01;;;;;;;;;;;26.10;47.00;;;;;;5014186;28;19913;-80
2023/06/01 10:39:27;;;;;;;;;;;26.10;47.10;;;;;;5030890;28;19917;-80
2023/06/01 10:41:57;;;;;;;;;;;26.00;47.10;;;;;;5013492;28;19919;-79
2023/06/01 10:44:41;;;;;;;;;;;26.00;47.20;;;;;;5013618;28;19909;-79
2023/06/01 10:47:13;;;;;;;;;;;25.90;47.20;;;;;;5016648;28;20178;-80
2023/06/01 10:49:50;;;;;;;;;;;25.80;47.30;;;;;;5015373;28;19998;-81
2023/06/01 10:52:28;;;;;;;;;;;25.80;47.30;;;;;;5014236;28;19971;-80
2023/06/01 10:54:54;;;;;;;;;;;25.80;47.40;;;;;;5012805;28;19962;-80
2023/06/01 10:57:21;;;;;;;;;;;25.70;47.50;;;;;;5013685;28;19916;-80
2023/06/01 11:00:08;;;;;;;;;;;25.70;47.50;;;;;;5032227;28;19913;-80
2023/06/01 11:02:33;;;;;;;;;;;25.70;47.60;;;;;;5014681;28;19944;-80
2023/06/01 11:05:17;;;;;;;;;;;25.60;47.70;;;;;;5014803;28;19960;-80
2023/06/01 11:07:44;;;;;;;;;;;25.60;47.80;;;;;;5013867;28;19909;-81
2023/06/01 11:10:09;;;;;;;;;;;25.50;47.80;;;;;;5012955;28;19915;-82
2023/06/01 11:12:55;;;;;;;;;;;25.50;47.80;;;;;;5029138;28;19913;-81
2023/06/01 11:15:21;;;;;;;;;;;25.50;47.90;;;;;;5011542;28;19909;-82
2023/06/01 11:17:47;;;;;;;;;;;25.40;47.90;;;;;;5010581;28;19941;-82
2023/06/01 11:20:13;;;;;;;;;;;25.40;48.00;;;;;;5011011;28;19960;-82
2023/06/01 11:22:39;;;;;;;;;;;25.40;48.10;;;;;;5012833;28;19944;-81
2023/06/01 11:25:07;;;;;;;;;;;25.40;48.20;;;;;;5033076;28;19898;-83
2023/06/01 11:27:33;;;;;;;;;;;25.30;48.20;;;;;;5012887;28;19909;-82
2023/06/01 11:29:59;;;;;;;;;;;25.30;48.30;;;;;;5012389;28;19909;-82
2023/06/01 11:32:26;;;;;;;;;;;25.30;48.30;;;;;;5015614;28;19921;-82
2023/06/01 11:34:53;;;;;;;;;;;25.30;48.30;;;;;;5018637;28;19909;-82
2023/06/01 11:37:20;;;;;;;;;;;25.30;48.40;;;;;;5036290;28;19921;-82
2023/06/01 11:39:47;;;;;;;;;;;25.30;48.50;;;;;;5033434;28;20263;-81
2023/06/01 11:42:16;;;;;;;;;;;25.20;48.50;;;;;;5014430;28;19988;-82
2023/06/01 11:44:43;;;;;;;;;;;25.20;48.60;;;;;;5016417;28;20003;-82
2023/06/01 11:47:09;;;;;;;;;;;25.20;49.10;;;;;;5016744;28;19932;-82
2023/06/01 11:49:42;;;;;;;;;;;25.10;48.80;;;;;;5017735;28;19960;-83
2023/06/01 11:52:08;;;;;;;;;;;25.10;48.80;;;;;;5014986;28;19948;-82
2023/06/01 11:54:34;;;;;;;;;;;25.10;48.90;;;;;;5017059;28;19909;-83
2023/06/01 11:57:02;;;;;;;;;;;25.10;49.00;;;;;;5018142;28;19963;-82
2023/06/01 11:59:36;;;;;;;;;;;25.10;49.00;;;;;;5016833;28;19910;-82
2023/06/01 12:02:01;;;;;;;;;;;25.00;48.90;;;;;;5015917;28;19909;-82
2023/06/01 12:04:27;;;;;;;;;;;25.00;49.00;;;;;;5016788;28;19909;-82
2023/06/01 12:07:03;;;;;;;;;;;25.00;49.10;;;;;;5034260;28;19910;-82
2023/06/01 12:09:29;;;;;;;;;;;25.00;49.20;;;;;;5034301;28;19921;-83
2023/06/01 12:11:55;;;;;;;;;;;24.90;49.20;;;;;;5014771;28;19909;-81
2023/06/01 12:14:20;;;;;;;;;;;24.90;49.30;;;;;;5014930;28;19917;-82
2023/06/01 12:16:53;;;;;;;;;;;24.90;49.30;;;;;;5014831;28;19928;-82
2023/06/01 12:19:20;;;;;;;;;;;24.90;49.40;;;;;;5030868;28;20501;-82
2023/06/01 12:21:50;;;;;;;;;;;24.80;49.40;;;;;;5013618;28;19913;-82
2023/06/01 12:24:16;;;;;;;;;;;24.80;49.50;;;;;;5013429;28;19937;-82
2023/06/01 12:26:43;;;;;;;;;;;24.80;49.40;;;;;;5015311;28;19909;-82
2023/06/01 12:29:09;;;;;;;;;;;24.80;49.50;;;;;;5031396;28;19909;-83
2023/06/01 12:31:35;;;;;;;;;;;24.80;49.50;;;;;;5033113;28;19932;-82
2023/06/01 12:34:00;;;;;;;;;;;24.80;49.60;;;;;;5015877;28;20241;-84
2023/06/01 12:36:35;;;;;;;;;;;24.80;49.60;;;;;;5017010;28;20206;-83
2023/06/01 12:39:03;;;;;;;;;;;24.70;49.60;;;;;;5030563;28;19956;-82
2023/06/01 12:41:29;;;;;;;;;;;24.80;49.70;;;;;;5013776;28;19919;-82
2023/06/01 12:43:55;;;;;;;;;;;24.70;49.70;;;;;;5031982;28;19909;-83
2023/06/01 12:46:24;;;;;;;;;;;24.70;49.70;;;;;;5014450;28;19909;-83
2023/06/01 12:48:51;;;;;;;;;;;24.70;49.70;;;;;;5032180;28;19948;-82
2023/06/01 12:51:17;;;;;;;;;;;24.70;49.80;;;;;;5013326;28;19913;-82
2023/06/01 12:53:42;;;;;;;;;;;24.70;49.90;;;;;;5030643;28;19909;-82
2023/06/01 12:56:10;;;;;;;;;;;24.60;49.90;;;;;;5015435;28;20496;-81
2023/06/01 12:58:36;;;;;;;;;;;24.60;49.90;;;;;;5016526;28;19920;-81
2023/06/01 13:01:02;;;;;;;;;;;24.60;50.00;;;;;;5015015;28;19913;-81
2023/06/01 13:03:29;;;;;;;;;;;24.60;50.00;;;;;;5014291;28;19909;-81
2023/06/01 13:05:55;;;;;;;;;;;24.60;50.00;;;;;;5013668;28;19910;-81
2023/06/01 13:08:20;;;;;;;;;;;24.60;50.10;;;;;;5012950;28;19909;-82
2023/06/01 13:10:46;;;;;;;;;;;24.60;50.10;;;;;;5030116;28;19941;-82
2023/06/01 13:13:15;;;;;;;;;;;24.60;50.20;;;;;;5031445;28;19909;-82
2023/06/01 13:15:47;;;;;;;;;;;24.60;50.20;;;;;;5015908;28;19909;-82
2023/06/01 13:18:12;;;;;;;;;;;24.60;50.30;;;;;;5015763;28;19910;-82
2023/06/01 13:20:41;;;;;;;;;;;24.50;50.20;;;;;;5015280;28;20332;-81
2023/06/01 13:23:08;;;;;;;;;;;24.60;50.40;;;;;;5032547;28;20517;-82
2023/06/01 13:25:34;;;;;;;;;;;24.50;50.30;;;;;;5016067;28;19916;-82
2023/06/01 13:28:00;;;;;;;;;;;24.50;50.40;;;;;;5031004;28;19910;-82
2023/06/01 13:30:33;;;;;;;;;;;24.50;50.40;;;;;;5031618;28;20215;-81
2023/06/01 13:32:58;;;;;;;;;;;24.50;50.40;;;;;;5014384;28;19917;-82
2023/06/01 13:35:24;;;;;;;;;;;24.50;50.50;;;;;;5014584;28;19909;-82
2023/06/01 13:37:50;;;;;;;;;;;24.50;50.50;;;;;;5032620;28;19909;-82
2023/06/01 13:40:18;;;;;;;;;;;24.50;50.60;;;;;;5016231;28;19913;-82
2023/06/01 13:42:47;;;;;;;;;;;24.50;50.60;;;;;;5015852;28;19920;-82
2023/06/01 13:45:12;;;;;;;;;;;24.50;50.60;;;;;;5014678;28;19909;-82
2023/06/01 13:47:38;;;;;;;;;;;24.50;50.60;;;;;;5013488;28;20407;-82
2023/06/01 13:50:04;;;;;;;;;;;24.40;50.60;;;;;;5030626;28;19998;-82
2023/06/01 13:52:30;;;;;;;;;;;24.40;50.60;;;;;;5011036;28;19916;-81
2023/06/01 13:54:56;;;;;;;;;;;24.40;50.70;;;;;;5029531;28;19909;-81
2023/06/01 13:57:22;;;;;;;;;;;24.40;50.70;;;;;;5029061;28;19909;-82
2023/06/01 13:59:47;;;;;;;;;;;24.40;50.70;;;;;;5010889;28;20325;-82
2023/06/01 14:02:14;;;;;;;;;;;24.40;50.70;;;;;;5029748;28;19909;-82
2023/06/01 14:04:39;;;;;;;;;;;24.40;50.70;;;;;;5012460;28;19909;-81
2023/06/01 14:07:05;;;;;;;;;;;24.40;50.80;;;;;;5011501;28;19909;-82
2023/06/01 14:09:31;;;;;;;;;;;24.40;50.80;;;;;;5026934;28;19952;-82
2023/06/01 14:11:57;;;;;;;;;;;24.40;50.80;;;;;;5029090;28;19924;-82
2023/06/01 14:14:22;;;;;;;;;;;24.30;50.90;;;;;;5011528;28;19909;-81
2023/06/01 14:16:48;;;;;;;;;;;24.30;50.90;;;;;;5027946;28;20528;-82
2023/06/01 14:19:13;;;;;;;;;;;24.30;50.90;;;;;;5011737;28;20406;-82